Terminal Aerodrome Forecast
Issued by NWS Melbourne, FL

Current Version | Previous Version | Text Only | Print | Product List | Glossary On
Versions: 1 2 3 4 5 6 7 8 9 10 11 12
000
FTUS42 KMLB 222300
TAFDAB
TAF
KDAB 222332Z 2300/2324 09010KT P6SM VCSH SCT025 OVC040
     FM230400 09011G19KT P6SM VCSH BKN015 OVC035
     FM231500 16013G20KT P6SM SCT015 BKN035
      TEMPO 2315/2318 BKN025=

USA.gov is the U.S. government's official web portal to all federal, state and local government web resources and services.